Time;durP1;ratioP1;P1;durP2;ratioP2;P2;SDS_P1;SDS_P2;PMS_P1;PMS_P2;Temp;Humidity;BMP_temperature;BMP_pressure;BME280_temperature;BME280_humidity;BME280_pressure;Samples;Min_cycle;Max_cycle;Signal;HPM_P1;HPM_P2
2023/10/19 00:00:22;;;;;;;7.67;1.77;;;20.80;58.50;;;;;;5052158;28;20266;-67
2023/10/19 00:02:54;;;;;;;9.80;1.37;;;20.60;59.00;;;;;;5051012;28;20184;-67
2023/10/19 00:05:26;;;;;;;5.93;1.37;;;20.40;58.60;;;;;;5042621;28;20246;-68
2023/10/19 00:07:57;;;;;;;6.07;1.60;;;20.70;58.60;;;;;;5047562;28;20188;-67
2023/10/19 00:10:28;;;;;;;3.57;1.03;;;20.40;55.60;;;;;;5059406;28;20183;-68
2023/10/19 00:13:04;;;;;;;6.87;1.50;;;20.60;56.30;;;;;;5049339;28;20184;-68
2023/10/19 00:15:40;;;;;;;4.37;1.33;;;20.60;58.00;;;;;;5032060;28;20255;-70
2023/10/19 00:23:18;;;;;;;4.50;1.30;;;20.70;57.70;;;;;;5042631;28;20188;-69
2023/10/19 00:25:51;;;;;;;5.23;1.20;;;20.80;56.40;;;;;;5047582;28;20591;-69
2023/10/19 00:28:19;;;;;;;3.83;1.20;;;20.60;56.60;;;;;;5051609;28;20183;-67
2023/10/19 00:30:49;;;;;;;6.77;1.33;;;20.40;56.50;;;;;;5051168;28;20306;-69
2023/10/19 00:33:28;;;;;;;6.60;1.30;;;20.40;56.80;;;;;;5051904;28;20175;-67
2023/10/19 00:36:08;;;;;;;4.37;1.23;;;20.40;57.20;;;;;;5039206;28;20748;-67
2023/10/19 00:39:05;;;;;;;2.97;1.10;;;20.40;56.10;;;;;;5048770;28;20184;-72
2023/10/19 00:41:31;;;;;;;7.63;1.53;;;20.30;56.60;;;;;;5045725;28;20206;-69
2023/10/19 00:44:10;;;;;;;3.47;1.20;;;20.40;56.90;;;;;;5051765;28;20653;-70
2023/10/19 00:49:12;;;;;;;4.93;1.30;;;20.60;57.00;;;;;;5055529;28;20180;-73
2023/10/19 00:54:32;;;;;;;7.30;1.40;;;20.80;56.60;;;;;;5047632;28;20673;-67
2023/10/19 00:57:06;;;;;;;6.23;1.30;;;20.60;56.30;;;;;;5048529;28;20521;-70
2023/10/19 01:00:21;;;;;;;11.67;2.07;;;20.60;56.80;;;;;;5055026;28;20214;-69
2023/10/19 01:04:56;;;;;;;3.47;1.00;;;20.80;57.00;;;;;;5058174;28;20186;-69
2023/10/19 01:07:27;;;;;;;4.63;1.03;;;20.80;57.40;;;;;;5055403;28;20597;-70
2023/10/19 01:10:00;;;;;;;5.10;1.17;;;20.80;57.00;;;;;;5047646;28;20575;-67
2023/10/19 01:15:17;;;;;;;5.17;1.23;;;21.00;55.80;;;;;;5049603;28;20215;-68
2023/10/19 01:17:46;;;;;;;3.07;1.00;;;21.20;56.10;;;;;;5054685;28;20209;-69
2023/10/19 01:28:28;;;;;;;3.90;0.97;;;22.20;52.00;;;;;;5048800;28;20241;-70
2023/10/19 01:30:56;;;;;;;5.17;1.07;;;22.10;50.00;;;;;;5052841;28;20222;-68
2023/10/19 01:33:24;;;;;;;3.53;1.13;;;22.10;50.00;;;;;;5054539;28;20267;-72
2023/10/19 01:38:36;;;;;;;5.87;1.10;;;21.80;50.50;;;;;;5055241;28;20191;-68
2023/10/19 01:41:24;;;;;;;3.93;1.00;;;21.70;50.30;;;;;;5054405;28;20278;-67
2023/10/19 01:43:56;;;;;;;3.93;1.00;;;21.80;50.70;;;;;;5035946;28;20187;-68
2023/10/19 01:46:25;;;;;;;9.63;1.10;;;21.60;50.80;;;;;;5059814;28;20182;-69
2023/10/19 01:48:55;;;;;;;4.37;0.97;;;21.30;51.20;;;;;;5050050;28;20192;-68
2023/10/19 01:51:28;;;;;;;3.50;1.20;;;21.30;51.50;;;;;;5054588;28;20611;-67
2023/10/19 01:53:56;;;;;;;6.10;1.20;;;21.50;52.00;;;;;;5054096;28;20654;-68
2023/10/19 01:56:24;;;;;;;4.60;1.20;;;21.80;51.30;;;;;;5050923;28;20233;-67
2023/10/19 01:58:54;;;;;;;6.37;1.20;;;21.90;51.50;;;;;;5054476;28;20183;-69
2023/10/19 02:03:59;;;;;;;2.97;1.30;;;22.50;50.20;;;;;;5054361;28;20342;-67
2023/10/19 02:09:17;;;;;;;4.33;0.97;;;22.60;49.30;;;;;;5054309;28;20591;-68
2023/10/19 02:12:01;;;;;;;4.87;1.27;;;22.80;49.00;;;;;;5052703;28;20180;-68
2023/10/19 02:14:29;;;;;;;3.97;1.47;;;22.70;47.30;;;;;;5036010;28;20266;-66
2023/10/19 02:16:58;;;;;;;3.47;1.27;;;22.60;47.90;;;;;;5053075;28;20198;-67
2023/10/19 02:19:28;;;;;;;8.87;1.67;;;22.50;47.80;;;;;;5049029;28;20227;-68
2023/10/19 02:22:03;;;;;;;6.90;1.40;;;22.60;48.40;;;;;;5053537;28;20180;-67
2023/10/19 02:24:30;;;;;;;3.97;1.30;;;22.50;48.40;;;;;;5050962;28;20175;-67
2023/10/19 02:27:01;;;;;;;4.13;1.30;;;22.50;49.10;;;;;;5051377;28;20183;-68
2023/10/19 02:29:28;;;;;;;7.27;2.00;;;22.60;48.60;;;;;;5048925;28;20259;-68
2023/10/19 02:32:03;;;;;;;8.67;1.87;;;22.90;48.40;;;;;;5053518;28;20654;-67
2023/10/19 02:34:31;;;;;;;4.50;1.20;;;22.70;48.90;;;;;;5053367;28;20318;-67
2023/10/19 02:36:58;;;;;;;7.13;1.93;;;22.80;49.30;;;;;;5053331;28;20179;-68
2023/10/19 02:39:28;;;;;;;7.67;1.97;;;22.90;48.80;;;;;;5044301;28;20231;-68
2023/10/19 02:41:55;;;;;;;8.33;1.60;;;22.80;49.10;;;;;;5046113;28;20244;-66
2023/10/19 02:44:25;;;;;;;4.33;1.50;;;22.80;48.60;;;;;;5046757;28;20203;-68
2023/10/19 02:46:59;;;;;;;6.53;1.10;;;22.50;48.30;;;;;;5053031;28;20566;-69
2023/10/19 02:49:29;;;;;;;2.43;1.20;;;22.30;48.10;;;;;;5052168;28;20179;-68
2023/10/19 02:52:02;;;;;;;5.07;1.00;;;22.40;48.50;;;;;;5051320;28;20680;-68
2023/10/19 02:54:32;;;;;;;2.63;0.93;;;22.60;47.70;;;;;;5048962;28;20265;-68
2023/10/19 02:57:00;;;;;;;6.43;1.00;;;22.80;46.70;;;;;;5052273;28;20184;-67
2023/10/19 02:59:29;;;;;;;4.07;1.17;;;22.80;46.30;;;;;;5050081;28;20190;-67
2023/10/19 03:02:01;;;;;;;7.07;1.50;;;22.50;46.50;;;;;;5051534;28;20631;-67
2023/10/19 03:04:29;;;;;;;2.83;1.07;;;22.70;47.00;;;;;;5047772;28;20294;-68
2023/10/19 03:06:56;;;;;;;3.50;1.10;;;22.80;46.90;;;;;;5048720;28;20194;-67
2023/10/19 03:09:36;;;;;;;2.77;1.00;;;22.60;47.30;;;;;;5048037;28;20191;-67
2023/10/19 03:12:05;;;;;;;9.03;1.30;;;22.60;47.50;;;;;;5045678;28;20196;-70
2023/10/19 03:14:33;;;;;;;4.33;1.00;;;23.10;48.20;;;;;;5044376;28;20312;-70
2023/10/19 03:17:01;;;;;;;6.80;1.57;;;23.20;47.60;;;;;;5044043;28;20242;-71
2023/10/19 03:19:28;;;;;;;7.40;1.40;;;23.10;47.80;;;;;;5049035;28;20180;-72
2023/10/19 03:22:00;;;;;;;5.90;1.50;;;23.00;48.10;;;;;;5051724;28;20191;-73
2023/10/19 03:24:38;;;;;;;5.00;1.47;;;22.90;49.00;;;;;;5042849;28;20964;-72
2023/10/19 03:27:21;;;;;;;5.20;1.10;;;22.90;48.10;;;;;;5044582;28;20686;-71
2023/10/19 03:29:55;;;;;;;4.87;1.47;;;22.80;49.40;;;;;;5047783;28;20187;-71
2023/10/19 03:32:28;;;;;;;7.63;1.20;;;22.80;48.30;;;;;;5047832;28;20191;-73
2023/10/19 03:34:56;;;;;;;7.70;1.20;;;22.80;48.70;;;;;;5046864;28;20227;-69
2023/10/19 03:37:30;;;;;;;5.83;1.57;;;22.60;49.40;;;;;;5050763;28;20190;-69
2023/10/19 03:39:58;;;;;;;4.13;1.53;;;22.80;49.80;;;;;;5047094;28;20225;-68
2023/10/19 03:42:32;;;;;;;7.47;1.63;;;22.80;50.00;;;;;;5047616;28;20266;-67
2023/10/19 03:45:02;;;;;;;7.60;1.43;;;22.70;50.00;;;;;;5049289;28;20184;-70
2023/10/19 03:47:36;;;;;;;6.77;1.37;;;22.40;51.20;;;;;;5050410;28;20267;-67
2023/10/19 03:50:07;;;;;;;3.60;1.20;;;22.80;50.60;;;;;;5048063;28;20267;-68
2023/10/19 03:52:38;;;;;;;7.30;1.40;;;23.50;49.20;;;;;;5048365;28;20187;-68
2023/10/19 03:55:11;;;;;;;7.03;1.40;;;23.80;47.70;;;;;;5046977;28;20223;-68
2023/10/19 03:57:46;;;;;;;5.43;1.60;;;24.00;47.20;;;;;;5045127;28;20189;-67
2023/10/19 04:00:19;;;;;;;6.20;1.50;;;24.00;47.10;;;;;;5047393;28;20187;-69
2023/10/19 04:02:55;;;;;;;4.00;1.10;;;24.00;47.60;;;;;;5048370;28;20245;-67
2023/10/19 04:05:23;;;;;;;6.03;1.53;;;23.40;48.00;;;;;;5045797;28;20218;-69
2023/10/19 04:07:57;;;;;;;6.60;1.70;;;23.10;49.00;;;;;;5053519;28;20315;-72
2023/10/19 04:13:09;;;;;;;6.50;1.40;;;23.00;48.70;;;;;;5042711;28;20212;-68
2023/10/19 04:15:36;;;;;;;6.63;1.30;;;23.10;48.30;;;;;;5050923;28;20631;-70
2023/10/19 04:18:11;;;;;;;3.80;1.13;;;23.40;47.50;;;;;;5052236;28;20187;-70
2023/10/19 04:20:58;;;;;;;4.40;1.30;;;24.10;46.10;;;;;;5051803;28;20258;-68
2023/10/19 04:23:28;;;;;;;8.60;1.17;;;24.70;45.20;;;;;;5049331;28;20188;-69
2023/10/19 04:25:57;;;;;;;4.40;1.37;;;25.50;42.50;;;;;;5046227;28;20191;-69
2023/10/19 04:28:33;;;;;;;4.97;1.03;;;25.50;42.80;;;;;;5063588;28;20267;-68
2023/10/19 04:31:02;;;;;;;3.57;1.00;;;25.80;42.40;;;;;;5049351;28;20196;-68
2023/10/19 04:33:31;;;;;;;2.97;1.10;;;26.30;41.10;;;;;;5051548;28;20180;-67
2023/10/19 04:36:00;;;;;;;7.13;1.40;;;26.60;40.30;;;;;;5051777;28;20223;-70
2023/10/19 04:38:33;;;;;;;4.83;1.30;;;26.90;39.60;;;;;;5051843;28;20176;-68
2023/10/19 04:41:10;;;;;;;6.57;1.20;;;26.50;39.70;;;;;;5053175;28;20172;-68
2023/10/19 04:43:39;;;;;;;7.80;1.47;;;26.20;40.50;;;;;;5054139;28;20528;-68
2023/10/19 04:46:11;;;;;;;7.90;1.43;;;25.90;41.10;;;;;;5053699;28;20182;-73
2023/10/19 04:48:40;;;;;;;3.07;0.97;;;26.40;40.70;;;;;;5054735;28;20234;-69
2023/10/19 04:51:09;;;;;;;4.73;1.30;;;26.30;40.50;;;;;;5053405;28;20271;-67
2023/10/19 04:53:37;;;;;;;3.23;1.07;;;26.20;40.70;;;;;;5048520;28;20543;-68
2023/10/19 04:56:09;;;;;;;3.77;1.07;;;25.90;39.40;;;;;;5050790;28;20394;-69
2023/10/19 04:58:36;;;;;;;7.40;1.00;;;26.00;39.50;;;;;;5052924;28;20642;-69
2023/10/19 05:01:05;;;;;;;7.63;1.70;;;26.30;38.80;;;;;;5050955;28;20651;-68
2023/10/19 05:03:32;;;;;;;2.60;1.13;;;26.10;39.70;;;;;;5051605;28;20191;-71
2023/10/19 05:06:01;;;;;;;3.10;1.10;;;26.40;38.70;;;;;;5043407;28;20192;-67
2023/10/19 05:08:29;;;;;;;6.00;1.10;;;26.40;38.70;;;;;;5054549;28;20237;-67
2023/10/19 05:10:58;;;;;;;3.50;1.20;;;26.40;39.10;;;;;;5054836;28;20210;-69
2023/10/19 05:13:27;;;;;;;6.13;1.10;;;27.00;37.30;;;;;;5053042;28;20279;-71
2023/10/19 05:15:58;;;;;;;5.60;1.30;;;26.90;37.80;;;;;;5039700;28;20219;-70
2023/10/19 05:18:27;;;;;;;7.17;1.40;;;26.70;38.40;;;;;;5052539;28;20196;-68
2023/10/19 05:20:57;;;;;;;2.53;0.87;;;26.70;38.90;;;;;;5052975;28;20238;-71
2023/10/19 05:23:25;;;;;;;7.33;1.60;;;26.80;38.40;;;;;;5049725;28;20183;-70
2023/10/19 05:25:59;;;;;;;4.40;1.10;;;26.70;39.10;;;;;;5048229;28;20274;-69
2023/10/19 05:28:27;;;;;;;7.63;1.47;;;26.80;38.90;;;;;;5051685;28;20180;-68
2023/10/19 05:30:54;;;;;;;6.37;1.13;;;26.60;39.30;;;;;;5053075;28;20211;-69
2023/10/19 05:33:23;;;;;;;5.97;1.60;;;26.80;39.60;;;;;;5059696;28;20650;-69
2023/10/19 05:35:51;;;;;;;5.47;1.17;;;26.50;40.00;;;;;;5053920;28;20235;-71
2023/10/19 05:38:19;;;;;;;7.47;1.23;;;27.00;39.20;;;;;;5064432;28;20656;-67
2023/10/19 05:40:47;;;;;;;3.67;1.27;;;27.20;39.00;;;;;;5044429;28;20603;-69
2023/10/19 05:43:14;;;;;;;4.57;1.37;;;27.30;38.90;;;;;;5055864;28;20251;-67
2023/10/19 05:45:42;;;;;;;5.17;1.47;;;26.50;40.10;;;;;;5065694;28;20233;-67
2023/10/19 05:48:11;;;;;;;3.73;1.20;;;26.40;39.60;;;;;;5051712;28;20799;-69
2023/10/19 05:50:38;;;;;;;2.47;1.07;;;26.50;40.50;;;;;;5047555;28;20179;-71
2023/10/19 05:53:06;;;;;;;4.57;1.00;;;26.70;39.90;;;;;;5056087;28;20692;-72
2023/10/19 05:55:36;;;;;;;5.00;1.30;;;27.10;40.40;;;;;;5067307;28;20674;-71
2023/10/19 05:58:04;;;;;;;3.93;1.10;;;26.70;40.40;;;;;;5051984;28;20188;-68
2023/10/19 06:00:31;;;;;;;6.70;2.33;;;26.50;40.80;;;;;;5066993;28;20184;-67
2023/10/19 06:02:59;;;;;;;4.60;1.07;;;26.70;41.10;;;;;;5051539;28;20535;-70
2023/10/19 06:05:26;;;;;;;5.83;1.60;;;27.00;39.50;;;;;;5067213;28;20171;-71
2023/10/19 06:07:54;;;;;;;6.80;1.10;;;26.40;40.00;;;;;;5050293;28;20265;-70
2023/10/19 06:10:22;;;;;;;3.90;0.90;;;25.50;41.20;;;;;;5054408;28;20338;-71
2023/10/19 06:12:50;;;;;;;4.77;1.00;;;25.30;41.60;;;;;;5054417;28;20175;-71
2023/10/19 06:15:25;;;;;;;5.00;1.40;;;25.80;39.80;;;;;;5061668;28;20699;-68
2023/10/19 06:17:53;;;;;;;3.30;1.10;;;25.80;40.00;;;;;;5060220;28;20665;-68
2023/10/19 06:20:29;;;;;;;3.40;1.07;;;25.80;39.90;;;;;;5062899;28;20245;-70
2023/10/19 06:23:06;;;;;;;2.23;1.07;;;25.80;40.40;;;;;;5067649;28;20176;-69
2023/10/19 06:25:34;;;;;;;4.03;1.20;;;26.20;39.30;;;;;;5073000;28;20191;-68
2023/10/19 06:28:07;;;;;;;2.47;0.90;;;26.70;39.00;;;;;;5056842;28;20199;-70
2023/10/19 06:30:40;;;;;;;2.77;0.90;;;26.50;38.90;;;;;;5057894;28;20188;-69
2023/10/19 06:33:08;;;;;;;5.63;1.23;;;26.90;38.60;;;;;;5066126;28;20183;-68
2023/10/19 06:35:37;;;;;;;4.17;1.13;;;25.80;40.60;;;;;;5070916;28;20563;-69
2023/10/19 06:38:05;;;;;;;10.47;1.20;;;26.60;39.70;;;;;;5056006;28;20175;-70
2023/10/19 06:40:36;;;;;;;4.20;1.37;;;25.90;41.10;;;;;;5055623;28;20747;-69
2023/10/19 06:43:05;;;;;;;6.30;1.20;;;26.20;40.50;;;;;;5060790;28;20219;-69
2023/10/19 06:45:33;;;;;;;2.70;1.00;;;26.60;40.00;;;;;;5051394;28;20212;-67
2023/10/19 06:48:01;;;;;;;5.57;1.30;;;26.90;39.60;;;;;;5059394;28;20176;-68
2023/10/19 06:50:29;;;;;;;3.30;0.93;;;26.60;40.10;;;;;;5062596;28;20220;-71
2023/10/19 06:52:56;;;;;;;4.27;1.40;;;26.30;41.10;;;;;;5061115;28;20266;-70
2023/10/19 06:55:24;;;;;;;3.00;1.10;;;26.10;41.90;;;;;;5053178;28;20216;-66
2023/10/19 06:57:53;;;;;;;3.67;1.00;;;25.50;42.70;;;;;;5059114;28;20266;-68
2023/10/19 07:00:26;;;;;;;4.77;1.27;;;25.50;42.90;;;;;;5054839;28;20289;-69
2023/10/19 07:03:00;;;;;;;4.90;1.20;;;25.00;43.00;;;;;;5065343;28;20252;-67
2023/10/19 07:05:30;;;;;;;3.90;1.10;;;24.80;43.70;;;;;;5057731;28;20187;-68
2023/10/19 07:07:59;;;;;;;8.17;1.47;;;24.80;43.90;;;;;;5060150;28;20322;-70
2023/10/19 07:10:29;;;;;;;2.90;0.97;;;24.20;46.20;;;;;;5070194;28;20179;-68
2023/10/19 07:12:58;;;;;;;3.47;1.00;;;24.30;45.70;;;;;;5059665;28;20295;-67
2023/10/19 07:15:29;;;;;;;8.00;1.40;;;24.60;45.00;;;;;;5054076;28;20218;-69
2023/10/19 07:17:58;;;;;;;4.50;1.30;;;24.80;45.00;;;;;;5050224;28;20186;-68
2023/10/19 07:20:27;;;;;;;2.90;1.10;;;24.20;46.60;;;;;;5067315;28;20713;-67
2023/10/19 07:22:55;;;;;;;4.50;1.20;;;24.20;47.00;;;;;;5060909;28;20180;-70
2023/10/19 07:25:25;;;;;;;3.80;1.00;;;24.10;48.10;;;;;;5046351;28;20513;-71
2023/10/19 07:27:55;;;;;;;5.77;1.23;;;24.60;46.70;;;;;;5071765;28;20689;-70
2023/10/19 07:30:26;;;;;;;5.50;1.50;;;23.30;49.80;;;;;;5052897;28;20271;-68
2023/10/19 07:32:54;;;;;;;5.60;1.50;;;22.00;53.40;;;;;;5060114;28;20179;-70
2023/10/19 07:35:37;;;;;;;10.43;1.50;;;22.20;53.90;;;;;;5062380;28;20314;-69
2023/10/19 07:38:07;;;;;;;6.90;1.60;;;21.70;54.80;;;;;;5070486;28;20209;-72
2023/10/19 07:40:35;;;;;;;8.83;2.00;;;21.30;56.40;;;;;;5062401;28;20176;-71
2023/10/19 07:43:06;;;;;;;4.80;1.30;;;20.80;57.90;;;;;;5052359;28;20203;-69
2023/10/19 07:45:34;;;;;;;9.73;2.00;;;20.30;59.70;;;;;;5070231;28;20183;-71
2023/10/19 07:48:06;;;;;;;6.87;1.40;;;20.20;60.60;;;;;;5063203;28;20262;-70
2023/10/19 07:50:37;;;;;;;5.30;1.53;;;20.20;60.80;;;;;;5055366;28;20257;-71
2023/10/19 07:53:05;;;;;;;5.73;1.80;;;20.00;61.30;;;;;;5049151;28;20286;-68
2023/10/19 07:55:32;;;;;;;6.63;1.77;;;19.80;61.90;;;;;;5060262;28;20214;-68
2023/10/19 07:58:02;;;;;;;9.50;1.97;;;19.70;62.50;;;;;;5059376;28;20269;-68
2023/10/19 08:00:29;;;;;;;6.03;1.67;;;19.60;62.70;;;;;;5063823;28;20187;-69
2023/10/19 08:02:58;;;;;;;7.93;1.60;;;19.60;63.10;;;;;;5060236;28;20194;-69
2023/10/19 08:05:26;;;;;;;5.00;1.63;;;19.60;63.30;;;;;;5054927;28;20195;-69
2023/10/19 08:07:53;;;;;;;4.27;1.10;;;19.50;63.90;;;;;;5057807;28;20180;-69
2023/10/19 08:10:21;;;;;;;4.27;1.20;;;19.50;64.10;;;;;;5054699;28;20639;-69
2023/10/19 08:12:50;;;;;;;8.47;1.70;;;19.50;64.50;;;;;;5064326;28;20180;-72
2023/10/19 08:15:19;;;;;;;8.17;2.13;;;19.30;64.90;;;;;;5065221;28;20309;-69
2023/10/19 08:17:50;;;;;;;6.43;1.70;;;19.30;64.50;;;;;;5054011;28;20202;-69
2023/10/19 08:20:30;;;;;;;8.27;1.43;;;19.30;64.80;;;;;;5050437;28;20188;-72
2023/10/19 08:23:05;;;;;;;5.23;1.23;;;19.20;65.00;;;;;;5063740;28;20259;-69
2023/10/19 08:25:39;;;;;;;3.47;1.23;;;19.20;65.30;;;;;;5051259;28;20193;-71
2023/10/19 08:28:07;;;;;;;7.73;1.70;;;19.10;65.90;;;;;;5058249;28;20184;-69
2023/10/19 08:30:34;;;;;;;7.00;1.60;;;19.10;66.40;;;;;;5076033;28;20312;-69
2023/10/19 08:33:01;;;;;;;9.17;1.37;;;19.10;66.60;;;;;;5072471;28;20182;-69
2023/10/19 08:35:30;;;;;;;7.47;1.50;;;19.00;66.60;;;;;;5073808;28;20231;-68
2023/10/19 08:37:58;;;;;;;7.47;1.87;;;19.00;67.00;;;;;;5066698;28;20642;-68
2023/10/19 08:40:29;;;;;;;8.10;1.87;;;19.00;67.60;;;;;;5049536;28;20555;-68
2023/10/19 08:42:56;;;;;;;5.93;1.80;;;18.90;67.90;;;;;;5054469;28;20619;-69
2023/10/19 08:45:25;;;;;;;8.27;1.57;;;19.00;67.90;;;;;;5055080;28;20175;-69
2023/10/19 08:48:04;;;;;;;10.67;1.73;;;18.90;68.50;;;;;;5056609;28;20187;-68
2023/10/19 08:50:37;;;;;;;5.30;1.43;;;18.90;68.50;;;;;;5058366;28;20318;-69
2023/10/19 08:53:08;;;;;;;12.23;1.80;;;18.90;68.80;;;;;;5050431;28;20221;-68
2023/10/19 08:55:36;;;;;;;11.40;2.40;;;18.90;68.70;;;;;;5046515;28;20211;-71
2023/10/19 08:58:06;;;;;;;6.47;1.70;;;18.80;68.60;;;;;;5059382;28;20179;-69
2023/10/19 09:00:48;;;;;;;9.80;1.70;;;18.80;68.60;;;;;;5059309;28;20538;-69
2023/10/19 09:03:16;;;;;;;9.93;2.13;;;18.80;68.30;;;;;;5041035;28;20217;-70
2023/10/19 09:05:47;;;;;;;7.47;1.80;;;18.80;68.40;;;;;;5055120;28;20516;-68
2023/10/19 09:08:22;;;;;;;8.63;2.10;;;18.80;68.50;;;;;;5054215;28;20250;-73
2023/10/19 09:10:53;;;;;;;9.47;1.77;;;18.80;68.90;;;;;;5053301;28;20332;-68
2023/10/19 09:13:22;;;;;;;12.23;2.03;;;18.80;69.20;;;;;;5046986;28;20654;-71
2023/10/19 09:15:53;;;;;;;8.40;2.10;;;18.80;69.20;;;;;;5051409;28;20216;-69
2023/10/19 09:18:22;;;;;;;13.20;2.47;;;18.70;69.20;;;;;;5079105;28;20314;-72
2023/10/19 09:21:02;;;;;;;9.17;1.80;;;18.70;69.10;;;;;;5049530;28;20187;-73
2023/10/19 09:23:30;;;;;;;11.43;2.17;;;18.70;69.20;;;;;;5053018;28;20183;-69
2023/10/19 09:26:06;;;;;;;21.77;2.43;;;18.70;69.20;;;;;;5053137;28;20204;-66
2023/10/19 09:28:37;;;;;;;10.07;1.97;;;18.70;69.20;;;;;;5052615;28;20292;-67
2023/10/19 09:31:09;;;;;;;10.17;2.07;;;18.60;69.40;;;;;;5052031;28;20658;-69
2023/10/19 09:33:39;;;;;;;9.93;2.07;;;18.60;69.60;;;;;;5049146;28;20634;-70
2023/10/19 09:36:12;;;;;;;11.67;2.23;;;18.60;69.60;;;;;;5053262;28;20223;-69
2023/10/19 09:38:48;;;;;;;7.70;1.97;;;18.60;69.40;;;;;;5050451;28;20223;-70
2023/10/19 09:41:29;;;;;;;13.73;2.37;;;18.60;69.60;;;;;;5052766;28;20171;-68
2023/10/19 09:44:06;;;;;;;11.23;2.27;;;18.60;69.70;;;;;;5049181;28;20641;-70
2023/10/19 09:46:38;;;;;;;11.10;1.80;;;18.60;69.30;;;;;;5040438;28;20180;-68
2023/10/19 09:49:06;;;;;;;8.33;2.00;;;18.60;69.20;;;;;;5054026;28;20184;-71
2023/10/19 09:51:36;;;;;;;10.17;2.27;;;18.50;69.50;;;;;;5054361;28;20176;-72
2023/10/19 09:54:34;;;;;;;7.53;1.77;;;18.60;69.70;;;;;;5050120;28;20184;-72
2023/10/19 09:57:12;;;;;;;13.80;1.83;;;18.50;69.90;;;;;;5048049;28;20219;-69
2023/10/19 09:59:42;;;;;;;10.27;2.33;;;18.50;69.90;;;;;;5047627;28;20222;-69
2023/10/19 10:02:17;;;;;;;12.67;2.27;;;18.50;69.70;;;;;;5053835;28;20191;-69
2023/10/19 10:04:48;;;;;;;17.80;2.23;;;18.50;69.80;;;;;;5050151;28;20634;-70
2023/10/19 10:07:18;;;;;;;9.50;2.00;;;18.50;69.80;;;;;;5052605;28;20184;-67
2023/10/19 10:09:46;;;;;;;10.00;2.10;;;18.50;69.90;;;;;;5053238;28;20538;-75
2023/10/19 10:12:23;;;;;;;12.73;2.50;;;18.50;70.20;;;;;;5050575;28;20179;-70
2023/10/19 10:15:10;;;;;;;11.77;2.20;;;18.40;70.40;;;;;;5052413;28;20664;-70
2023/10/19 10:17:38;;;;;;;8.90;1.70;;;18.40;70.70;;;;;;5052524;28;20176;-67
2023/10/19 10:20:15;;;;;;;10.10;1.87;;;18.40;70.80;;;;;;5051839;28;20263;-68
2023/10/19 10:22:43;;;;;;;8.07;2.00;;;18.40;70.70;;;;;;5053858;28;20188;-70
2023/10/19 10:25:30;;;;;;;13.40;2.50;;;18.30;70.80;;;;;;5051530;28;20263;-72
2023/10/19 10:27:59;;;;;;;8.50;1.67;;;18.40;70.60;;;;;;5048631;28;20172;-72
2023/10/19 10:30:28;;;;;;;9.93;2.50;;;18.40;70.60;;;;;;5063158;28;20184;-72
2023/10/19 10:32:59;;;;;;;8.00;2.03;;;18.30;70.60;;;;;;5048880;28;20642;-70
2023/10/19 10:35:41;;;;;;;14.70;2.40;;;18.30;70.80;;;;;;5054013;28;20230;-70
2023/10/19 10:38:14;;;;;;;13.07;2.17;;;18.30;71.10;;;;;;5051150;28;20186;-69
2023/10/19 10:40:49;;;;;;;11.40;2.10;;;18.30;71.10;;;;;;5046471;28;20193;-68
2023/10/19 10:43:21;;;;;;;13.50;2.13;;;18.30;71.40;;;;;;5045628;28;20245;-70
2023/10/19 10:45:49;;;;;;;14.83;2.30;;;18.30;71.70;;;;;;5049324;28;20317;-71
2023/10/19 10:48:21;;;;;;;8.07;2.07;;;18.30;71.60;;;;;;5041725;28;20643;-69
2023/10/19 10:50:49;;;;;;;8.27;2.17;;;18.30;71.70;;;;;;5052828;28;20225;-72
2023/10/19 10:53:17;;;;;;;8.90;2.20;;;18.30;71.80;;;;;;5067888;28;20187;-68
2023/10/19 10:55:44;;;;;;;11.20;2.63;;;18.30;71.70;;;;;;5063251;28;20215;-70
2023/10/19 10:58:21;;;;;;;11.73;2.33;;;18.30;71.70;;;;;;5065297;28;20176;-71
2023/10/19 11:00:51;;;;;;;9.40;2.13;;;18.30;71.80;;;;;;5063242;28;20255;-70
2023/10/19 11:03:18;;;;;;;8.87;2.10;;;18.30;71.90;;;;;;5058765;28;20237;-67
2023/10/19 11:05:46;;;;;;;8.90;2.47;;;18.30;72.20;;;;;;5049242;28;20183;-70
2023/10/19 11:08:20;;;;;;;8.70;2.03;;;18.20;72.40;;;;;;5063491;28;20634;-72
2023/10/19 11:10:48;;;;;;;9.83;1.93;;;18.30;72.50;;;;;;5046093;28;20626;-69
2023/10/19 11:13:17;;;;;;;10.37;2.13;;;18.30;72.60;;;;;;5056304;28;20481;-69
2023/10/19 11:15:56;;;;;;;9.37;1.93;;;18.20;72.90;;;;;;5051354;28;20215;-67
2023/10/19 11:18:49;;;;;;;8.37;1.90;;;18.30;73.10;;;;;;5062664;28;20186;-69
2023/10/19 11:21:18;;;;;;;13.30;2.27;;;18.20;73.10;;;;;;5053292;28;20178;-73
2023/10/19 11:23:46;;;;;;;15.20;2.40;;;18.20;73.30;;;;;;5057454;28;20322;-66
2023/10/19 11:26:18;;;;;;;6.90;1.87;;;18.20;73.50;;;;;;5052708;28;20198;-68
2023/10/19 11:28:53;;;;;;;8.83;2.00;;;18.20;73.60;;;;;;5049617;28;20248;-69
2023/10/19 11:31:24;;;;;;;10.83;2.23;;;18.20;73.50;;;;;;5054875;28;20187;-72
2023/10/19 11:33:53;;;;;;;11.27;2.47;;;18.20;73.70;;;;;;5063108;28;20281;-67
2023/10/19 11:36:24;;;;;;;9.37;2.10;;;18.10;73.70;;;;;;5068834;28;20310;-71
2023/10/19 11:38:53;;;;;;;12.67;2.60;;;18.10;74.00;;;;;;5063366;28;20249;-74
2023/10/19 11:41:21;;;;;;;8.73;2.37;;;18.00;74.20;;;;;;5057245;28;20725;-73
2023/10/19 11:43:49;;;;;;;10.33;2.17;;;18.00;74.30;;;;;;5060554;28;20239;-71
2023/10/19 11:46:22;;;;;;;10.53;2.53;;;18.00;74.30;;;;;;5061612;28;20259;-68
2023/10/19 11:48:50;;;;;;;13.57;2.33;;;18.00;74.50;;;;;;5072341;28;20203;-69
2023/10/19 11:51:20;;;;;;;11.43;2.40;;;17.90;74.70;;;;;;5072430;28;20606;-70
2023/10/19 11:53:48;;;;;;;8.53;1.90;;;17.90;74.80;;;;;;5063404;28;20183;-68
2023/10/19 11:56:16;;;;;;;15.27;2.73;;;17.90;75.10;;;;;;5051382;28;20222;-69
2023/10/19 11:58:46;;;;;;;14.87;2.47;;;17.90;75.20;;;;;;5058583;28;20541;-67
2023/10/19 12:01:16;;;;;;;9.67;2.00;;;17.90;75.20;;;;;;5071313;28;20179;-71
2023/10/19 12:03:45;;;;;;;11.70;2.13;;;17.90;75.20;;;;;;5064090;28;20195;-69
2023/10/19 12:06:18;;;;;;;11.77;2.90;;;17.90;75.30;;;;;;5060856;28;20269;-70
2023/10/19 12:08:46;;;;;;;10.87;2.33;;;17.80;75.40;;;;;;5071380;28;20233;-69
2023/10/19 12:11:18;;;;;;;12.10;2.60;;;17.80;75.50;;;;;;5061099;28;20573;-67
2023/10/19 12:13:46;;;;;;;9.47;2.60;;;17.80;75.70;;;;;;5067614;28;20186;-69
2023/10/19 12:16:15;;;;;;;9.27;2.47;;;17.80;75.80;;;;;;5066479;28;20685;-68
2023/10/19 12:19:01;;;;;;;15.50;2.20;;;17.80;75.90;;;;;;5054481;28;20566;-68
2023/10/19 12:21:30;;;;;;;12.60;2.53;;;17.80;75.90;;;;;;5051022;28;20182;-70
2023/10/19 12:23:59;;;;;;;10.80;1.90;;;17.70;76.10;;;;;;5052285;28;20234;-68
2023/10/19 12:26:29;;;;;;;19.10;2.67;;;17.70;76.20;;;;;;5049934;28;20196;-72
2023/10/19 12:28:57;;;;;;;7.90;2.00;;;17.70;76.30;;;;;;5063359;28;20542;-72
2023/10/19 12:31:25;;;;;;;15.07;2.77;;;17.70;76.40;;;;;;5067337;28;20186;-69
2023/10/19 12:33:53;;;;;;;10.70;2.23;;;17.60;76.40;;;;;;5070330;28;20176;-71
2023/10/19 12:38:50;;;;;;;12.67;2.13;;;17.60;76.50;;;;;;5073152;28;20174;-67
2023/10/19 12:41:21;;;;;;;9.70;2.07;;;17.50;76.60;;;;;;5069115;28;20171;-67
2023/10/19 12:43:57;;;;;;;11.40;2.30;;;17.50;76.80;;;;;;5048297;28;20666;-72
2023/10/19 12:46:25;;;;;;;9.97;2.53;;;17.40;77.00;;;;;;5073834;28;20178;-70
2023/10/19 12:48:54;;;;;;;15.00;2.10;;;17.40;77.20;;;;;;5071559;28;20581;-68
2023/10/19 12:51:24;;;;;;;7.37;1.97;;;17.30;77.30;;;;;;5075370;28;20171;-69
2023/10/19 12:53:55;;;;;;;12.03;1.83;;;17.20;77.40;;;;;;5070800;28;20658;-68
2023/10/19 12:56:24;;;;;;;10.10;2.20;;;17.10;77.40;;;;;;5074918;28;20274;-70
2023/10/19 12:58:51;;;;;;;8.07;2.10;;;17.00;77.70;;;;;;5075153;28;20171;-71
2023/10/19 13:01:19;;;;;;;9.30;1.73;;;17.10;78.20;;;;;;5065010;28;20185;-69
2023/10/19 13:03:49;;;;;;;11.27;1.90;;;17.00;78.50;;;;;;5070226;28;20526;-68
2023/10/19 13:06:17;;;;;;;12.73;2.13;;;17.00;78.90;;;;;;5074091;28;20184;-68
2023/10/19 13:08:44;;;;;;;8.07;2.20;;;16.90;78.90;;;;;;5075444;28;20174;-69
2023/10/19 13:11:14;;;;;;;14.20;2.33;;;16.80;79.10;;;;;;5070347;28;20186;-68
2023/10/19 13:13:42;;;;;;;9.77;2.40;;;16.80;79.30;;;;;;5059210;28;20183;-67
2023/10/19 13:16:09;;;;;;;10.57;2.20;;;16.80;79.50;;;;;;5066484;28;20206;-69
2023/10/19 13:18:40;;;;;;;7.87;1.73;;;16.70;79.50;;;;;;5074483;28;20264;-69
2023/10/19 13:21:11;;;;;;;9.07;2.57;;;16.70;79.80;;;;;;5063243;28;20238;-66
2023/10/19 13:23:39;;;;;;;9.43;2.50;;;16.70;80.00;;;;;;5066258;28;20187;-68
2023/10/19 13:28:42;;;;;;;10.07;2.50;;;16.60;79.90;;;;;;5054722;28;20179;-69
2023/10/19 13:31:09;;;;;;;8.73;2.27;;;16.60;80.20;;;;;;5054890;28;20190;-69
2023/10/19 13:33:37;;;;;;;9.97;2.30;;;16.60;80.30;;;;;;5054455;28;20278;-68
2023/10/19 13:36:05;;;;;;;12.10;2.07;;;16.60;80.20;;;;;;5054762;28;20234;-67
2023/10/19 13:38:32;;;;;;;10.33;2.33;;;16.50;80.20;;;;;;5054893;28;20270;-68
2023/10/19 13:41:04;;;;;;;9.53;2.40;;;16.50;80.30;;;;;;5054610;28;20183;-68
2023/10/19 13:43:32;;;;;;;12.07;2.03;;;16.40;80.40;;;;;;5054990;28;20184;-74